sensor_id;sensor_type;location;lat;lon;timestamp;temperature;humidity
7972;DHT22;4031;49.758;6.120;2023-03-31T00:01:30;9.60;99.90
7972;DHT22;4031;49.758;6.120;2023-03-31T00:03:58;9.60;99.90
7972;DHT22;4031;49.758;6.120;2023-03-31T00:06:29;9.60;99.90
7972;DHT22;4031;49.758;6.120;2023-03-31T00:09:03;9.50;99.90
7972;DHT22;4031;49.758;6.120;2023-03-31T00:11:30;9.50;99.90
7972;DHT22;4031;49.758;6.120;2023-03-31T00:13:56;9.50;99.90
7972;DHT22;4031;49.758;6.120;2023-03-31T00:16:22;9.40;99.90
7972;DHT22;4031;49.758;6.120;2023-03-31T00:18:47;9.40;99.90
7972;DHT22;4031;49.758;6.120;2023-03-31T00:21:23;9.50;99.90
7972;DHT22;4031;49.758;6.120;2023-03-31T00:23:57;9.40;99.90
7972;DHT22;4031;49.758;6.120;2023-03-31T00:26:24;9.40;99.90
7972;DHT22;4031;49.758;6.120;2023-03-31T00:28:51;9.40;99.90
7972;DHT22;4031;49.758;6.120;2023-03-31T00:31:18;9.40;99.90
7972;DHT22;4031;49.758;6.120;2023-03-31T00:33:45;9.30;99.90
7972;DHT22;4031;49.758;6.120;2023-03-31T00:36:10;9.30;99.90
7972;DHT22;4031;49.758;6.120;2023-03-31T00:38:36;9.30;99.90
7972;DHT22;4031;49.758;6.120;2023-03-31T00:41:03;9.40;99.90
7972;DHT22;4031;49.758;6.120;2023-03-31T00:43:35;9.40;99.90
7972;DHT22;4031;49.758;6.120;2023-03-31T00:46:28;9.40;99.90
7972;DHT22;4031;49.758;6.120;2023-03-31T00:48:56;9.40;99.90
7972;DHT22;4031;49.758;6.120;2023-03-31T00:51:25;9.40;99.90
7972;DHT22;4031;49.758;6.120;2023-03-31T00:53:57;9.40;99.90
7972;DHT22;4031;49.758;6.120;2023-03-31T00:56:28;9.40;99.90
7972;DHT22;4031;49.758;6.120;2023-03-31T00:59:01;9.40;99.90
7972;DHT22;4031;49.758;6.120;2023-03-31T01:01:29;9.40;99.90
7972;DHT22;4031;49.758;6.120;2023-03-31T01:03:55;9.40;99.90
7972;DHT22;4031;49.758;6.120;2023-03-31T01:06:22;9.40;99.90
7972;DHT22;4031;49.758;6.120;2023-03-31T01:08:50;9.40;99.90
7972;DHT22;4031;49.758;6.120;2023-03-31T01:11:19;9.40;99.90
7972;DHT22;4031;49.758;6.120;2023-03-31T01:13:47;9.30;99.90
7972;DHT22;4031;49.758;6.120;2023-03-31T01:16:16;9.30;99.90
7972;DHT22;4031;49.758;6.120;2023-03-31T01:18:43;9.30;99.90
7972;DHT22;4031;49.758;6.120;2023-03-31T01:36:44;9.10;99.90
7972;DHT22;4031;49.758;6.120;2023-03-31T01:47:48;9.00;99.90
7972;DHT22;4031;49.758;6.120;2023-03-31T01:50:35;9.00;99.90
7972;DHT22;4031;49.758;6.120;2023-03-31T01:53:30;9.00;99.90
7972;DHT22;4031;49.758;6.120;2023-03-31T01:59:11;9.10;99.90
7972;DHT22;4031;49.758;6.120;2023-03-31T02:01:50;9.00;99.90
7972;DHT22;4031;49.758;6.120;2023-03-31T02:04:32;9.00;99.90
7972;DHT22;4031;49.758;6.120;2023-03-31T02:07:14;9.00;99.90
7972;DHT22;4031;49.758;6.120;2023-03-31T02:09:48;8.90;99.90
7972;DHT22;4031;49.758;6.120;2023-03-31T02:12:16;9.00;99.90
7972;DHT22;4031;49.758;6.120;2023-03-31T02:14:44;9.00;99.90
7972;DHT22;4031;49.758;6.120;2023-03-31T02:17:18;8.90;99.90
7972;DHT22;4031;49.758;6.120;2023-03-31T02:19:49;8.90;99.90
7972;DHT22;4031;49.758;6.120;2023-03-31T02:22:18;8.90;99.90
7972;DHT22;4031;49.758;6.120;2023-03-31T02:24:46;8.90;99.90
7972;DHT22;4031;49.758;6.120;2023-03-31T02:27:32;8.90;99.90
7972;DHT22;4031;49.758;6.120;2023-03-31T02:30:00;8.90;99.90
7972;DHT22;4031;49.758;6.120;2023-03-31T02:32:38;8.90;99.90
7972;DHT22;4031;49.758;6.120;2023-03-31T02:35:07;8.90;99.90
7972;DHT22;4031;49.758;6.120;2023-03-31T02:37:37;8.80;99.90
7972;DHT22;4031;49.758;6.120;2023-03-31T02:40:10;8.80;99.90
7972;DHT22;4031;49.758;6.120;2023-03-31T02:42:40;8.80;99.90
7972;DHT22;4031;49.758;6.120;2023-03-31T02:45:37;8.80;99.90
7972;DHT22;4031;49.758;6.120;2023-03-31T02:48:07;8.80;99.90
7972;DHT22;4031;49.758;6.120;2023-03-31T02:53:59;8.80;99.90
7972;DHT22;4031;49.758;6.120;2023-03-31T02:56:58;8.80;99.90
7972;DHT22;4031;49.758;6.120;2023-03-31T03:03:49;8.80;99.90
7972;DHT22;4031;49.758;6.120;2023-03-31T03:17:31;8.70;99.90
7972;DHT22;4031;49.758;6.120;2023-03-31T03:20:00;8.70;99.90
7972;DHT22;4031;49.758;6.120;2023-03-31T03:22:28;8.70;99.90
7972;DHT22;4031;49.758;6.120;2023-03-31T03:24:54;8.70;99.90
7972;DHT22;4031;49.758;6.120;2023-03-31T03:27:20;8.70;99.90
7972;DHT22;4031;49.758;6.120;2023-03-31T03:29:48;8.70;99.90
7972;DHT22;4031;49.758;6.120;2023-03-31T03:32:14;8.70;99.90
7972;DHT22;4031;49.758;6.120;2023-03-31T03:34:39;8.70;99.90
7972;DHT22;4031;49.758;6.120;2023-03-31T03:37:05;8.70;99.90
7972;DHT22;4031;49.758;6.120;2023-03-31T03:39:31;8.60;99.90
7972;DHT22;4031;49.758;6.120;2023-03-31T03:41:57;8.70;99.90
7972;DHT22;4031;49.758;6.120;2023-03-31T03:44:23;8.70;99.90
7972;DHT22;4031;49.758;6.120;2023-03-31T03:46:49;8.70;99.90
7972;DHT22;4031;49.758;6.120;2023-03-31T03:49:15;8.70;99.90
7972;DHT22;4031;49.758;6.120;2023-03-31T03:51:40;8.70;99.90
7972;DHT22;4031;49.758;6.120;2023-03-31T03:54:06;8.70;99.90
7972;DHT22;4031;49.758;6.120;2023-03-31T03:56:32;8.70;99.90
7972;DHT22;4031;49.758;6.120;2023-03-31T03:58:57;8.70;99.90
7972;DHT22;4031;49.758;6.120;2023-03-31T04:01:23;8.70;99.90
7972;DHT22;4031;49.758;6.120;2023-03-31T04:03:49;8.70;99.90
7972;DHT22;4031;49.758;6.120;2023-03-31T04:06:15;8.70;99.90
7972;DHT22;4031;49.758;6.120;2023-03-31T04:08:41;8.70;99.90
7972;DHT22;4031;49.758;6.120;2023-03-31T04:11:15;8.70;99.90
7972;DHT22;4031;49.758;6.120;2023-03-31T04:13:43;8.70;99.90
7972;DHT22;4031;49.758;6.120;2023-03-31T04:16:09;8.70;99.90
7972;DHT22;4031;49.758;6.120;2023-03-31T04:18:36;8.70;99.90
7972;DHT22;4031;49.758;6.120;2023-03-31T04:21:11;8.70;99.90
7972;DHT22;4031;49.758;6.120;2023-03-31T04:23:40;8.70;99.90
7972;DHT22;4031;49.758;6.120;2023-03-31T04:26:13;8.70;99.90
7972;DHT22;4031;49.758;6.120;2023-03-31T04:28:40;8.70;99.90
7972;DHT22;4031;49.758;6.120;2023-03-31T04:31:10;8.60;99.90
7972;DHT22;4031;49.758;6.120;2023-03-31T04:33:42;8.60;99.90
7972;DHT22;4031;49.758;6.120;2023-03-31T04:36:11;8.70;99.90
7972;DHT22;4031;49.758;6.120;2023-03-31T04:38:42;8.70;99.90
7972;DHT22;4031;49.758;6.120;2023-03-31T04:41:13;8.70;99.90
7972;DHT22;4031;49.758;6.120;2023-03-31T04:43:38;8.70;99.90
7972;DHT22;4031;49.758;6.120;2023-03-31T04:46:04;8.70;99.90
7972;DHT22;4031;49.758;6.120;2023-03-31T04:48:30;8.70;99.90
7972;DHT22;4031;49.758;6.120;2023-03-31T04:50:56;8.70;99.90
7972;DHT22;4031;49.758;6.120;2023-03-31T04:53:21;8.70;99.90
7972;DHT22;4031;49.758;6.120;2023-03-31T04:55:50;8.70;99.90
7972;DHT22;4031;49.758;6.120;2023-03-31T04:58:16;8.70;99.90
7972;DHT22;4031;49.758;6.120;2023-03-31T05:00:42;8.70;99.90
7972;DHT22;4031;49.758;6.120;2023-03-31T05:03:07;8.70;99.90
7972;DHT22;4031;49.758;6.120;2023-03-31T05:05:34;8.70;99.90
7972;DHT22;4031;49.758;6.120;2023-03-31T05:08:00;8.70;99.90
7972;DHT22;4031;49.758;6.120;2023-03-31T05:10:27;8.60;99.90
7972;DHT22;4031;49.758;6.120;2023-03-31T05:12:52;8.60;99.90
7972;DHT22;4031;49.758;6.120;2023-03-31T05:15:18;8.60;99.90
7972;DHT22;4031;49.758;6.120;2023-03-31T05:17:44;8.60;99.90
7972;DHT22;4031;49.758;6.120;2023-03-31T05:20:11;8.60;99.90
7972;DHT22;4031;49.758;6.120;2023-03-31T05:22:39;8.50;99.90
7972;DHT22;4031;49.758;6.120;2023-03-31T05:25:06;8.40;99.90
7972;DHT22;4031;49.758;6.120;2023-03-31T05:27:33;8.50;99.90
7972;DHT22;4031;49.758;6.120;2023-03-31T05:30:00;8.50;99.90
7972;DHT22;4031;49.758;6.120;2023-03-31T05:32:26;8.50;99.90
7972;DHT22;4031;49.758;6.120;2023-03-31T05:34:52;8.50;99.90
7972;DHT22;4031;49.758;6.120;2023-03-31T05:37:22;8.50;99.90
7972;DHT22;4031;49.758;6.120;2023-03-31T05:39:49;8.50;99.90
7972;DHT22;4031;49.758;6.120;2023-03-31T05:42:15;8.50;99.90
7972;DHT22;4031;49.758;6.120;2023-03-31T05:44:41;8.60;99.90
7972;DHT22;4031;49.758;6.120;2023-03-31T05:47:07;8.60;99.90
7972;DHT22;4031;49.758;6.120;2023-03-31T05:49:33;8.60;99.90
7972;DHT22;4031;49.758;6.120;2023-03-31T05:51:58;8.70;99.90
7972;DHT22;4031;49.758;6.120;2023-03-31T05:54:25;8.70;99.90
7972;DHT22;4031;49.758;6.120;2023-03-31T05:56:51;8.70;99.90
7972;DHT22;4031;49.758;6.120;2023-03-31T05:59:17;8.80;99.90
7972;DHT22;4031;49.758;6.120;2023-03-31T06:01:43;8.80;99.90
7972;DHT22;4031;49.758;6.120;2023-03-31T06:04:09;8.80;99.90
7972;DHT22;4031;49.758;6.120;2023-03-31T06:06:34;8.80;99.90
7972;DHT22;4031;49.758;6.120;2023-03-31T06:09:03;8.80;99.90
7972;DHT22;4031;49.758;6.120;2023-03-31T06:11:29;8.80;99.90
7972;DHT22;4031;49.758;6.120;2023-03-31T06:13:55;8.90;99.90
7972;DHT22;4031;49.758;6.120;2023-03-31T06:16:21;8.90;99.90
7972;DHT22;4031;49.758;6.120;2023-03-31T06:18:47;9.10;99.90
7972;DHT22;4031;49.758;6.120;2023-03-31T06:21:16;9.20;99.90
7972;DHT22;4031;49.758;6.120;2023-03-31T06:23:43;9.30;99.90
7972;DHT22;4031;49.758;6.120;2023-03-31T06:26:16;9.30;99.90
7972;DHT22;4031;49.758;6.120;2023-03-31T06:28:44;9.40;99.90
7972;DHT22;4031;49.758;6.120;2023-03-31T06:31:13;9.50;99.90
7972;DHT22;4031;49.758;6.120;2023-03-31T06:33:43;9.60;99.90
7972;DHT22;4031;49.758;6.120;2023-03-31T06:36:11;9.80;99.90
7972;DHT22;4031;49.758;6.120;2023-03-31T06:38:39;9.90;99.90
7972;DHT22;4031;49.758;6.120;2023-03-31T06:41:07;10.00;99.90
7972;DHT22;4031;49.758;6.120;2023-03-31T06:43:34;10.10;99.90
7972;DHT22;4031;49.758;6.120;2023-03-31T06:46:00;10.10;99.90
7972;DHT22;4031;49.758;6.120;2023-03-31T06:48:26;10.10;99.90
7972;DHT22;4031;49.758;6.120;2023-03-31T06:50:53;10.00;99.90
7972;DHT22;4031;49.758;6.120;2023-03-31T06:53:20;10.00;99.90
7972;DHT22;4031;49.758;6.120;2023-03-31T06:55:46;9.90;99.90
7972;DHT22;4031;49.758;6.120;2023-03-31T06:58:12;9.90;99.90
7972;DHT22;4031;49.758;6.120;2023-03-31T07:00:38;10.00;99.90
7972;DHT22;4031;49.758;6.120;2023-03-31T07:03:05;10.10;99.90
7972;DHT22;4031;49.758;6.120;2023-03-31T07:05:33;10.20;99.90
7972;DHT22;4031;49.758;6.120;2023-03-31T07:07:59;10.40;99.90
7972;DHT22;4031;49.758;6.120;2023-03-31T07:10:28;10.40;99.90
7972;DHT22;4031;49.758;6.120;2023-03-31T07:12:54;10.40;99.90
7972;DHT22;4031;49.758;6.120;2023-03-31T07:15:20;10.50;99.90
7972;DHT22;4031;49.758;6.120;2023-03-31T07:17:47;10.40;99.90
7972;DHT22;4031;49.758;6.120;2023-03-31T07:20:16;10.40;99.90
7972;DHT22;4031;49.758;6.120;2023-03-31T07:22:44;10.40;99.90
7972;DHT22;4031;49.758;6.120;2023-03-31T07:25:12;10.50;99.90
7972;DHT22;4031;49.758;6.120;2023-03-31T07:27:39;10.50;99.90
7972;DHT22;4031;49.758;6.120;2023-03-31T07:30:10;10.50;99.90
7972;DHT22;4031;49.758;6.120;2023-03-31T07:32:37;10.50;99.90
7972;DHT22;4031;49.758;6.120;2023-03-31T07:35:06;10.60;99.90
7972;DHT22;4031;49.758;6.120;2023-03-31T07:37:41;10.80;99.90
7972;DHT22;4031;49.758;6.120;2023-03-31T07:40:10;11.00;99.90
7972;DHT22;4031;49.758;6.120;2023-03-31T07:42:42;11.10;99.90
7972;DHT22;4031;49.758;6.120;2023-03-31T07:45:09;11.20;99.90
7972;DHT22;4031;49.758;6.120;2023-03-31T07:47:35;11.40;99.90
7972;DHT22;4031;49.758;6.120;2023-03-31T07:50:01;11.50;99.90
7972;DHT22;4031;49.758;6.120;2023-03-31T07:52:27;11.20;99.90
7972;DHT22;4031;49.758;6.120;2023-03-31T07:54:53;10.70;99.90
7972;DHT22;4031;49.758;6.120;2023-03-31T07:57:19;10.20;99.90
7972;DHT22;4031;49.758;6.120;2023-03-31T07:59:45;9.90;99.90
7972;DHT22;4031;49.758;6.120;2023-03-31T08:02:16;9.80;99.90
7972;DHT22;4031;49.758;6.120;2023-03-31T08:04:43;9.90;99.90
7972;DHT22;4031;49.758;6.120;2023-03-31T08:07:11;10.00;99.90
7972;DHT22;4031;49.758;6.120;2023-03-31T08:09:38;10.20;99.90
7972;DHT22;4031;49.758;6.120;2023-03-31T08:12:05;10.40;99.90
7972;DHT22;4031;49.758;6.120;2023-03-31T08:14:31;10.50;99.90
7972;DHT22;4031;49.758;6.120;2023-03-31T08:16:57;10.40;99.90
7972;DHT22;4031;49.758;6.120;2023-03-31T08:19:24;10.30;99.90
7972;DHT22;4031;49.758;6.120;2023-03-31T08:21:51;10.20;99.90
7972;DHT22;4031;49.758;6.120;2023-03-31T08:24:17;10.10;99.90
7972;DHT22;4031;49.758;6.120;2023-03-31T08:26:43;10.00;99.90
7972;DHT22;4031;49.758;6.120;2023-03-31T08:29:09;9.90;99.90
7972;DHT22;4031;49.758;6.120;2023-03-31T08:31:35;9.80;99.90
7972;DHT22;4031;49.758;6.120;2023-03-31T08:34:00;9.70;99.90
7972;DHT22;4031;49.758;6.120;2023-03-31T08:36:27;9.70;99.90
7972;DHT22;4031;49.758;6.120;2023-03-31T08:38:53;9.70;99.90
7972;DHT22;4031;49.758;6.120;2023-03-31T08:44:35;9.90;99.90
7972;DHT22;4031;49.758;6.120;2023-03-31T08:47:04;10.10;99.90
7972;DHT22;4031;49.758;6.120;2023-03-31T08:49:43;10.30;99.90
7972;DHT22;4031;49.758;6.120;2023-03-31T08:52:15;11.10;99.90
7972;DHT22;4031;49.758;6.120;2023-03-31T08:54:51;11.50;99.90
7972;DHT22;4031;49.758;6.120;2023-03-31T08:57:35;12.10;99.90
7972;DHT22;4031;49.758;6.120;2023-03-31T09:00:13;12.50;99.90
7972;DHT22;4031;49.758;6.120;2023-03-31T09:02:55;13.20;99.90
7972;DHT22;4031;49.758;6.120;2023-03-31T09:05:43;13.50;99.90
7972;DHT22;4031;49.758;6.120;2023-03-31T09:08:32;14.10;99.90
7972;DHT22;4031;49.758;6.120;2023-03-31T09:17:12;13.60;99.90
7972;DHT22;4031;49.758;6.120;2023-03-31T09:19:58;13.60;99.90
7972;DHT22;4031;49.758;6.120;2023-03-31T09:22:38;13.10;99.90
7972;DHT22;4031;49.758;6.120;2023-03-31T09:27:42;12.30;99.90
7972;DHT22;4031;49.758;6.120;2023-03-31T09:33:16;12.00;99.90
7972;DHT22;4031;49.758;6.120;2023-03-31T09:35:56;11.50;99.90
7972;DHT22;4031;49.758;6.120;2023-03-31T09:38:23;11.30;99.90
7972;DHT22;4031;49.758;6.120;2023-03-31T09:40:54;11.90;99.90
7972;DHT22;4031;49.758;6.120;2023-03-31T09:43:23;12.30;99.90
7972;DHT22;4031;49.758;6.120;2023-03-31T09:45:51;13.40;99.90
7972;DHT22;4031;49.758;6.120;2023-03-31T09:48:22;13.80;99.90
7972;DHT22;4031;49.758;6.120;2023-03-31T09:51:13;13.40;99.90
7972;DHT22;4031;49.758;6.120;2023-03-31T09:53:45;12.80;99.90
7972;DHT22;4031;49.758;6.120;2023-03-31T09:59:30;11.80;99.90
7972;DHT22;4031;49.758;6.120;2023-03-31T10:02:03;12.00;99.90
7972;DHT22;4031;49.758;6.120;2023-03-31T10:04:44;12.90;99.90
7972;DHT22;4031;49.758;6.120;2023-03-31T10:07:11;13.40;99.90
7972;DHT22;4031;49.758;6.120;2023-03-31T10:09:38;13.20;99.90
7972;DHT22;4031;49.758;6.120;2023-03-31T10:12:14;13.20;99.90
7972;DHT22;4031;49.758;6.120;2023-03-31T10:14:46;13.20;99.90
7972;DHT22;4031;49.758;6.120;2023-03-31T10:17:24;14.10;99.90
7972;DHT22;4031;49.758;6.120;2023-03-31T10:19:58;14.60;99.90
7972;DHT22;4031;49.758;6.120;2023-03-31T10:22:32;14.80;99.90
7972;DHT22;4031;49.758;6.120;2023-03-31T10:25:22;14.90;99.90
7972;DHT22;4031;49.758;6.120;2023-03-31T10:27:52;15.00;99.90
7972;DHT22;4031;49.758;6.120;2023-03-31T10:30:25;14.70;99.90
7972;DHT22;4031;49.758;6.120;2023-03-31T10:32:55;14.30;99.90
7972;DHT22;4031;49.758;6.120;2023-03-31T10:35:34;13.90;99.90
7972;DHT22;4031;49.758;6.120;2023-03-31T10:38:09;13.90;99.90
7972;DHT22;4031;49.758;6.120;2023-03-31T10:40:37;14.00;99.90
7972;DHT22;4031;49.758;6.120;2023-03-31T10:43:14;14.10;99.90
7972;DHT22;4031;49.758;6.120;2023-03-31T10:45:50;14.00;99.90
7972;DHT22;4031;49.758;6.120;2023-03-31T10:48:26;14.10;99.90
7972;DHT22;4031;49.758;6.120;2023-03-31T10:51:15;14.00;99.90
7972;DHT22;4031;49.758;6.120;2023-03-31T10:53:49;14.40;99.90
7972;DHT22;4031;49.758;6.120;2023-03-31T11:05:11;16.80;99.90
7972;DHT22;4031;49.758;6.120;2023-03-31T11:16:57;16.90;99.90
7972;DHT22;4031;49.758;6.120;2023-03-31T11:31:16;13.90;99.90
7972;DHT22;4031;49.758;6.120;2023-03-31T11:36:39;13.40;99.90
7972;DHT22;4031;49.758;6.120;2023-03-31T11:42:12;12.80;99.90
7972;DHT22;4031;49.758;6.120;2023-03-31T11:44:45;12.70;99.90
7972;DHT22;4031;49.758;6.120;2023-03-31T11:47:24;12.60;99.90
7972;DHT22;4031;49.758;6.120;2023-03-31T11:49:57;12.30;99.90
7972;DHT22;4031;49.758;6.120;2023-03-31T11:52:30;11.80;99.90
7972;DHT22;4031;49.758;6.120;2023-03-31T11:55:17;12.10;99.90
7972;DHT22;4031;49.758;6.120;2023-03-31T11:57:57;13.40;99.90
7972;DHT22;4031;49.758;6.120;2023-03-31T12:00:33;14.30;99.90
7972;DHT22;4031;49.758;6.120;2023-03-31T12:03:32;14.40;99.90
7972;DHT22;4031;49.758;6.120;2023-03-31T12:06:07;14.80;99.90
7972;DHT22;4031;49.758;6.120;2023-03-31T12:08:48;14.90;99.90
7972;DHT22;4031;49.758;6.120;2023-03-31T12:11:21;14.70;99.90
7972;DHT22;4031;49.758;6.120;2023-03-31T12:16:48;15.80;99.90
7972;DHT22;4031;49.758;6.120;2023-03-31T12:19:23;16.70;99.90
7972;DHT22;4031;49.758;6.120;2023-03-31T12:21:57;16.50;99.90
7972;DHT22;4031;49.758;6.120;2023-03-31T12:24:29;16.30;99.90
7972;DHT22;4031;49.758;6.120;2023-03-31T12:29:43;15.80;99.90
7972;DHT22;4031;49.758;6.120;2023-03-31T12:32:24;15.50;99.90
7972;DHT22;4031;49.758;6.120;2023-03-31T12:35:03;16.00;99.90
7972;DHT22;4031;49.758;6.120;2023-03-31T12:52:21;15.10;99.90
7972;DHT22;4031;49.758;6.120;2023-03-31T12:57:45;15.10;99.90
7972;DHT22;4031;49.758;6.120;2023-03-31T13:02:46;16.20;99.90
7972;DHT22;4031;49.758;6.120;2023-03-31T13:08:03;16.40;99.90
7972;DHT22;4031;49.758;6.120;2023-03-31T13:10:31;16.20;99.90
7972;DHT22;4031;49.758;6.120;2023-03-31T13:15:27;15.80;99.90
7972;DHT22;4031;49.758;6.120;2023-03-31T13:18:02;15.60;99.90
7972;DHT22;4031;49.758;6.120;2023-03-31T13:23:20;15.20;99.90
7972;DHT22;4031;49.758;6.120;2023-03-31T13:25:51;15.20;99.90
7972;DHT22;4031;49.758;6.120;2023-03-31T13:39:26;15.50;99.90
7972;DHT22;4031;49.758;6.120;2023-03-31T13:45:44;15.50;99.90
7972;DHT22;4031;49.758;6.120;2023-03-31T13:48:36;15.30;99.90
7972;DHT22;4031;49.758;6.120;2023-03-31T14:00:10;13.50;99.90
7972;DHT22;4031;49.758;6.120;2023-03-31T14:05:46;13.10;99.90
7972;DHT22;4031;49.758;6.120;2023-03-31T14:11:16;13.30;99.90
7972;DHT22;4031;49.758;6.120;2023-03-31T14:14:13;13.90;99.90
7972;DHT22;4031;49.758;6.120;2023-03-31T14:16:48;14.20;99.90
7972;DHT22;4031;49.758;6.120;2023-03-31T14:31:25;14.10;99.90
7972;DHT22;4031;49.758;6.120;2023-03-31T14:37:16;14.70;99.90
7972;DHT22;4031;49.758;6.120;2023-03-31T14:39:47;15.10;99.90
7972;DHT22;4031;49.758;6.120;2023-03-31T14:42:22;15.50;99.90
7972;DHT22;4031;49.758;6.120;2023-03-31T14:44:55;15.60;99.90
7972;DHT22;4031;49.758;6.120;2023-03-31T14:47:24;16.00;99.90
7972;DHT22;4031;49.758;6.120;2023-03-31T14:50:04;16.20;99.90
7972;DHT22;4031;49.758;6.120;2023-03-31T14:52:33;15.90;99.90
7972;DHT22;4031;49.758;6.120;2023-03-31T14:55:00;15.50;99.90
7972;DHT22;4031;49.758;6.120;2023-03-31T14:57:35;15.80;99.90
7972;DHT22;4031;49.758;6.120;2023-03-31T15:00:05;15.90;99.90
7972;DHT22;4031;49.758;6.120;2023-03-31T15:02:39;16.00;99.90
7972;DHT22;4031;49.758;6.120;2023-03-31T15:05:08;15.70;99.90
7972;DHT22;4031;49.758;6.120;2023-03-31T15:07:40;15.40;99.90
7972;DHT22;4031;49.758;6.120;2023-03-31T15:10:06;15.00;99.90
7972;DHT22;4031;49.758;6.120;2023-03-31T15:12:33;14.60;99.90
7972;DHT22;4031;49.758;6.120;2023-03-31T15:15:05;14.30;99.90
7972;DHT22;4031;49.758;6.120;2023-03-31T15:17:40;14.10;99.90
7972;DHT22;4031;49.758;6.120;2023-03-31T15:22:56;12.80;99.90
7972;DHT22;4031;49.758;6.120;2023-03-31T15:25:30;12.30;99.90
7972;DHT22;4031;49.758;6.120;2023-03-31T15:28:17;12.20;99.90
7972;DHT22;4031;49.758;6.120;2023-03-31T15:30:43;12.30;99.90
7972;DHT22;4031;49.758;6.120;2023-03-31T15:33:34;12.40;99.90
7972;DHT22;4031;49.758;6.120;2023-03-31T15:36:06;12.30;99.90
7972;DHT22;4031;49.758;6.120;2023-03-31T15:38:36;12.10;99.90
7972;DHT22;4031;49.758;6.120;2023-03-31T15:41:02;11.80;99.90
7972;DHT22;4031;49.758;6.120;2023-03-31T15:46:01;11.10;99.90
7972;DHT22;4031;49.758;6.120;2023-03-31T15:48:35;10.90;99.90
7972;DHT22;4031;49.758;6.120;2023-03-31T15:51:41;10.80;99.90
7972;DHT22;4031;49.758;6.120;2023-03-31T15:54:31;10.80;99.90
7972;DHT22;4031;49.758;6.120;2023-03-31T15:57:05;11.10;99.90
7972;DHT22;4031;49.758;6.120;2023-03-31T15:59:49;11.50;99.90
7972;DHT22;4031;49.758;6.120;2023-03-31T16:02:20;11.70;99.90
7972;DHT22;4031;49.758;6.120;2023-03-31T16:04:49;11.80;99.90
7972;DHT22;4031;49.758;6.120;2023-03-31T16:07:25;11.80;99.90
7972;DHT22;4031;49.758;6.120;2023-03-31T16:12:26;11.50;99.90
7972;DHT22;4031;49.758;6.120;2023-03-31T16:15:10;11.50;99.90
7972;DHT22;4031;49.758;6.120;2023-03-31T16:17:48;11.40;99.90
7972;DHT22;4031;49.758;6.120;2023-03-31T16:20:25;11.40;99.90
7972;DHT22;4031;49.758;6.120;2023-03-31T16:22:54;11.50;99.90
7972;DHT22;4031;49.758;6.120;2023-03-31T16:25:24;11.60;99.90
7972;DHT22;4031;49.758;6.120;2023-03-31T16:28:00;11.70;99.90
7972;DHT22;4031;49.758;6.120;2023-03-31T16:30:42;11.80;99.90
7972;DHT22;4031;49.758;6.120;2023-03-31T16:33:14;11.90;99.90
7972;DHT22;4031;49.758;6.120;2023-03-31T16:35:47;11.90;99.90
7972;DHT22;4031;49.758;6.120;2023-03-31T16:38:15;12.00;99.90
7972;DHT22;4031;49.758;6.120;2023-03-31T16:40:44;12.00;99.90
7972;DHT22;4031;49.758;6.120;2023-03-31T16:43:18;12.10;99.90
7972;DHT22;4031;49.758;6.120;2023-03-31T16:45:46;12.10;99.90
7972;DHT22;4031;49.758;6.120;2023-03-31T16:48:14;12.00;99.90
7972;DHT22;4031;49.758;6.120;2023-03-31T16:50:48;11.90;99.90
7972;DHT22;4031;49.758;6.120;2023-03-31T16:53:18;11.80;99.90
7972;DHT22;4031;49.758;6.120;2023-03-31T16:55:46;11.50;99.90
7972;DHT22;4031;49.758;6.120;2023-03-31T16:58:12;11.30;99.90
7972;DHT22;4031;49.758;6.120;2023-03-31T17:00:38;11.20;99.90
7972;DHT22;4031;49.758;6.120;2023-03-31T17:03:06;11.20;99.90
7972;DHT22;4031;49.758;6.120;2023-03-31T17:05:37;11.20;99.90
7972;DHT22;4031;49.758;6.120;2023-03-31T17:08:08;11.20;99.90
7972;DHT22;4031;49.758;6.120;2023-03-31T17:10:35;11.20;99.90
7972;DHT22;4031;49.758;6.120;2023-03-31T17:13:01;11.20;99.90
7972;DHT22;4031;49.758;6.120;2023-03-31T17:15:27;11.20;99.90
7972;DHT22;4031;49.758;6.120;2023-03-31T17:17:54;11.20;99.90
7972;DHT22;4031;49.758;6.120;2023-03-31T17:20:21;11.20;99.90
7972;DHT22;4031;49.758;6.120;2023-03-31T17:22:47;11.20;99.90
7972;DHT22;4031;49.758;6.120;2023-03-31T17:25:13;11.10;99.90
7972;DHT22;4031;49.758;6.120;2023-03-31T17:27:38;11.00;99.90
7972;DHT22;4031;49.758;6.120;2023-03-31T17:30:05;10.90;99.90
7972;DHT22;4031;49.758;6.120;2023-03-31T17:32:33;10.80;99.90
7972;DHT22;4031;49.758;6.120;2023-03-31T17:34:58;10.80;99.90
7972;DHT22;4031;49.758;6.120;2023-03-31T17:37:24;10.70;99.90
7972;DHT22;4031;49.758;6.120;2023-03-31T17:39:50;10.70;99.90
7972;DHT22;4031;49.758;6.120;2023-03-31T17:42:16;10.60;99.90
7972;DHT22;4031;49.758;6.120;2023-03-31T17:44:43;10.60;99.90
7972;DHT22;4031;49.758;6.120;2023-03-31T17:47:10;10.50;99.90
7972;DHT22;4031;49.758;6.120;2023-03-31T17:49:37;10.50;99.90
7972;DHT22;4031;49.758;6.120;2023-03-31T17:52:03;10.50;99.90
7972;DHT22;4031;49.758;6.120;2023-03-31T17:54:29;10.50;99.90
7972;DHT22;4031;49.758;6.120;2023-03-31T17:56:55;10.40;99.90
7972;DHT22;4031;49.758;6.120;2023-03-31T17:59:21;10.30;99.90
7972;DHT22;4031;49.758;6.120;2023-03-31T18:01:47;10.30;99.90
7972;DHT22;4031;49.758;6.120;2023-03-31T18:04:13;10.30;99.90
7972;DHT22;4031;49.758;6.120;2023-03-31T18:06:39;10.30;99.90
7972;DHT22;4031;49.758;6.120;2023-03-31T18:09:06;10.30;99.90
7972;DHT22;4031;49.758;6.120;2023-03-31T18:11:34;10.30;99.90
7972;DHT22;4031;49.758;6.120;2023-03-31T18:14:00;10.20;99.90
7972;DHT22;4031;49.758;6.120;2023-03-31T18:16:28;10.20;99.90
7972;DHT22;4031;49.758;6.120;2023-03-31T18:18:54;10.10;99.90
7972;DHT22;4031;49.758;6.120;2023-03-31T18:21:20;10.10;99.90
7972;DHT22;4031;49.758;6.120;2023-03-31T18:23:48;10.00;99.90
7972;DHT22;4031;49.758;6.120;2023-03-31T18:26:20;10.00;99.90
7972;DHT22;4031;49.758;6.120;2023-03-31T18:28:51;10.00;99.90
7972;DHT22;4031;49.758;6.120;2023-03-31T18:31:17;10.00;99.90
7972;DHT22;4031;49.758;6.120;2023-03-31T18:33:43;10.00;99.90
7972;DHT22;4031;49.758;6.120;2023-03-31T18:36:16;10.00;99.90
7972;DHT22;4031;49.758;6.120;2023-03-31T18:38:44;10.00;99.90
7972;DHT22;4031;49.758;6.120;2023-03-31T18:41:11;9.90;99.90
7972;DHT22;4031;49.758;6.120;2023-03-31T18:43:37;9.90;99.90
7972;DHT22;4031;49.758;6.120;2023-03-31T18:46:03;9.80;99.90
7972;DHT22;4031;49.758;6.120;2023-03-31T18:48:30;9.70;99.90
7972;DHT22;4031;49.758;6.120;2023-03-31T18:50:56;9.60;99.90
7972;DHT22;4031;49.758;6.120;2023-03-31T18:53:23;9.60;99.90
7972;DHT22;4031;49.758;6.120;2023-03-31T18:55:53;9.60;99.90
7972;DHT22;4031;49.758;6.120;2023-03-31T18:58:21;9.60;99.90
7972;DHT22;4031;49.758;6.120;2023-03-31T19:00:47;9.60;99.90
7972;DHT22;4031;49.758;6.120;2023-03-31T19:03:13;9.60;99.90
7972;DHT22;4031;49.758;6.120;2023-03-31T19:05:39;9.50;99.90
7972;DHT22;4031;49.758;6.120;2023-03-31T19:08:05;9.40;99.90
7972;DHT22;4031;49.758;6.120;2023-03-31T19:10:31;9.30;99.90
7972;DHT22;4031;49.758;6.120;2023-03-31T19:12:57;9.20;99.90
7972;DHT22;4031;49.758;6.120;2023-03-31T19:15:23;9.20;99.90
7972;DHT22;4031;49.758;6.120;2023-03-31T19:17:50;9.10;99.90
7972;DHT22;4031;49.758;6.120;2023-03-31T19:20:16;9.10;99.90
7972;DHT22;4031;49.758;6.120;2023-03-31T19:22:46;9.00;99.90
7972;DHT22;4031;49.758;6.120;2023-03-31T19:25:14;9.00;99.90
7972;DHT22;4031;49.758;6.120;2023-03-31T19:27:41;9.00;99.90
7972;DHT22;4031;49.758;6.120;2023-03-31T19:30:15;9.00;99.90
7972;DHT22;4031;49.758;6.120;2023-03-31T19:32:44;9.00;99.90
7972;DHT22;4031;49.758;6.120;2023-03-31T19:35:11;9.10;99.90
7972;DHT22;4031;49.758;6.120;2023-03-31T19:37:36;9.20;99.90